Time;durP1;ratioP1;P1;durP2;ratioP2;P2;SDS_P1;SDS_P2;PMS_P1;PMS_P2;Temp;Humidity;BMP_temperature;BMP_pressure;BME280_temperature;BME280_humidity;BME280_pressure;Samples;Min_cycle;Max_cycle;Signal;HPM_P1;HPM_P2
2021/12/13 00:02:16;;;;;;;71.70;27.20;;;;;;;9.30;100.00;102521.25;5043108;28;20029;-77
2021/12/13 00:04:48;;;;;;;69.63;27.40;;;;;;;9.29;100.00;102518.59;5041122;28;20037;-77
2021/12/13 00:07:21;;;;;;;67.80;28.13;;;;;;;9.28;100.00;102516.78;5043884;28;20024;-78
2021/12/13 00:09:49;;;;;;;66.50;27.90;;;;;;;9.25;100.00;102507.09;5042981;28;20049;-78
2021/12/13 00:12:24;;;;;;;67.93;27.55;;;;;;;9.27;100.00;102509.78;5043596;28;20033;-77
2021/12/13 00:14:52;;;;;;;72.30;28.65;;;;;;;9.24;100.00;102510.53;5042521;28;20049;-77
2021/12/13 00:17:23;;;;;;;69.15;28.02;;;;;;;9.23;100.00;102507.00;5040347;28;20025;-78
2021/12/13 00:20:13;;;;;;;72.13;29.25;;;;;;;9.21;100.00;102506.03;5042130;28;20210;-77
2021/12/13 00:22:41;;;;;;;;;;;;;;;9.27;100.00;102514.97;5028486;28;20029;-77
2021/12/13 00:25:18;;;;;;;67.03;27.10;;;;;;;9.21;100.00;102511.25;5041893;28;20144;-77
2021/12/13 00:27:48;;;;;;;80.82;31.77;;;;;;;9.19;100.00;102511.97;5042110;28;20045;-77
2021/12/13 00:30:25;;;;;;;68.72;28.13;;;;;;;9.20;100.00;102509.44;5039367;28;20111;-77
2021/12/13 00:33:02;;;;;;;62.40;26.55;;;;;;;9.18;100.00;102508.47;5043283;28;20037;-77
2021/12/13 00:35:37;;;;;;;61.47;25.10;;;;;;;9.17;100.00;102518.78;5039052;28;20040;-77
2021/12/13 00:38:05;;;;;;;65.28;26.85;;;;;;;9.17;100.00;102518.78;5040817;28;20075;-77
2021/12/13 00:40:38;;;;;;;67.03;27.95;;;;;;;9.15;100.00;102516.09;5041959;28;20270;-77
2021/12/13 00:43:37;;;;;;;60.85;25.15;;;;;;;9.15;100.00;102517.78;5043446;28;20048;-77
2021/12/13 00:46:07;;;;;;;58.83;24.35;;;;;;;9.13;100.00;102525.50;5072039;28;20045;-77
2021/12/13 00:48:33;;;;;;;;;;;;;;;9.17;100.00;102524.88;5041625;28;20025;-77
2021/12/13 00:51:10;;;;;;;62.63;24.42;;;;;;;9.12;100.00;102531.50;5040128;28;19992;-77
2021/12/13 00:53:42;;;;;;;55.45;24.48;;;;;;;9.10;100.00;102525.34;5074666;28;20033;-77
2021/12/13 00:56:47;;;;;;;59.88;26.60;;;;;;;9.12;100.00;102525.44;5042267;28;20028;-77
2021/12/13 00:59:46;;;;;;;61.15;25.38;;;;;;;9.10;100.00;102527.06;5042483;28;20036;-78
2021/12/13 01:02:16;;;;;;;59.53;25.77;;;;;;;9.09;100.00;102530.47;5042740;28;20017;-78
2021/12/13 01:04:54;;;;;;;64.75;25.83;;;;;;;9.08;100.00;102534.78;5034451;28;20218;-77
2021/12/13 01:07:50;;;;;;;64.03;25.67;;;;;;;9.08;100.00;102528.66;5042055;28;20025;-77
2021/12/13 01:10:47;;;;;;;61.80;24.70;;;;;;;9.08;100.00;102533.84;5042367;28;20152;-77
2021/12/13 01:13:16;;;;;;;62.15;26.45;;;;;;;9.06;100.00;102538.97;5042437;28;20226;-77
2021/12/13 01:15:50;;;;;;;64.95;26.08;;;;;;;9.05;100.00;102538.09;5034589;28;20032;-77
2021/12/13 01:18:32;;;;;;;67.85;27.23;;;;;;;9.04;100.00;102541.47;5055650;28;20021;-77
2021/12/13 01:21:17;;;;;;;61.70;26.02;;;;;;;9.04;100.00;102540.59;5043583;28;20024;-77
2021/12/13 01:23:53;;;;;;;64.45;25.55;;;;;;;9.01;100.00;102543.91;5041309;28;20041;-77
2021/12/13 01:26:37;;;;;;;65.13;26.63;;;;;;;9.01;99.94;102545.63;5037011;28;20072;-77
2021/12/13 01:29:20;;;;;;;64.55;26.10;;;;;;;9.00;100.00;102542.13;5038300;28;20235;-77
2021/12/13 01:31:53;;;;;;;68.00;26.15;;;;;;;8.99;100.00;102547.22;5040923;28;20067;-78
2021/12/13 01:34:20;;;;;;;67.95;26.75;;;;;;;8.97;100.00;102548.84;5039916;28;20142;-77
2021/12/13 01:36:57;;;;;;;68.60;26.58;;;;;;;8.97;100.00;102546.25;5040915;28;20079;-78
2021/12/13 01:39:27;;;;;;;66.43;26.75;;;;;;;8.95;100.00;102550.44;5039821;28;20098;-78
2021/12/13 01:41:59;;;;;;;70.50;26.45;;;;;;;8.94;100.00;102553.88;5042534;28;20060;-78
2021/12/13 01:44:29;;;;;;;66.28;27.05;;;;;;;8.93;100.00;102546.88;5041007;28;20116;-78
2021/12/13 01:46:57;;;;;;;;;;;;;;;8.98;100.00;102553.22;5038466;28;20032;-77
2021/12/13 01:49:37;;;;;;;59.15;24.73;;;;;;;8.94;100.00;102556.47;5040447;28;19929;-78
2021/12/13 01:52:15;;;;;;;66.22;25.35;;;;;;;8.92;100.00;102556.41;5041860;28;20256;-78
2021/12/13 01:54:41;;;;;;;78.03;29.02;;;;;;;8.91;100.00;102561.47;5041684;28;20041;-78
2021/12/13 01:57:23;;;;;;;78.18;28.50;;;;;;;8.91;100.00;102562.41;5034022;28;20033;-78
2021/12/13 02:00:07;;;;;;;68.20;26.50;;;;;;;8.91;100.00;102569.28;5040475;28;20052;-78
2021/12/13 02:02:37;;;;;;;64.55;25.77;;;;;;;8.87;99.96;102561.31;5040772;28;20033;-78
2021/12/13 02:05:13;;;;;;;69.50;26.98;;;;;;;8.87;100.00;102561.31;5040877;28;20038;-78
2021/12/13 02:07:53;;;;;;;70.40;26.80;;;;;;;8.87;99.97;102568.22;5041616;28;20025;-78
2021/12/13 02:10:25;;;;;;;73.90;26.67;;;;;;;8.85;99.66;102573.31;5041732;28;20060;-78
2021/12/13 02:12:57;;;;;;;72.50;27.50;;;;;;;8.84;100.00;102571.53;5041600;28;20048;-78
2021/12/13 02:18:16;;;;;;;71.88;26.60;;;;;;;8.83;100.00;102569.72;5042029;28;20052;-77
2021/12/13 02:20:49;;;;;;;67.60;27.25;;;;;;;8.82;99.80;102570.56;5040187;28;20033;-77
2021/12/13 02:23:14;;;;;;;72.13;27.30;;;;;;;8.82;100.00;102556.63;5041639;28;20029;-77
2021/12/13 02:25:49;;;;;;;72.78;27.95;;;;;;;8.82;100.00;102554.97;5040409;28;20033;-77
2021/12/13 02:28:17;;;;;;;77.43;28.75;;;;;;;8.82;100.00;102557.56;5041406;28;20264;-77
2021/12/13 02:30:45;;;;;;;76.70;28.13;;;;;;;8.81;100.00;102550.56;5040897;28;20033;-77
2021/12/13 02:33:18;;;;;;;72.80;28.73;;;;;;;8.80;99.56;102551.34;5067685;28;20017;-77
2021/12/13 02:35:50;;;;;;;74.20;28.70;;;;;;;8.79;99.83;102553.88;5040677;28;20037;-77
2021/12/13 02:38:17;;;;;;;75.68;27.30;;;;;;;8.78;99.95;102565.97;5041347;28;20021;-77
2021/12/13 02:40:43;;;;;;;71.65;27.23;;;;;;;8.78;99.87;102565.09;5043726;28;20436;-77
2021/12/13 02:43:12;;;;;;;76.80;28.48;;;;;;;8.78;99.65;102562.50;5045395;28;20112;-77
2021/12/13 02:45:43;;;;;;;73.90;28.13;;;;;;;8.77;99.99;102568.50;5044964;28;20045;-77
2021/12/13 02:48:14;;;;;;;79.32;27.85;;;;;;;8.76;99.83;102567.59;5045397;28;20117;-77
2021/12/13 02:50:55;;;;;;;77.50;28.63;;;;;;;8.76;99.99;102567.59;5043962;28;20076;-77
2021/12/13 02:53:35;;;;;;;73.40;27.35;;;;;;;8.75;100.00;102568.41;5045112;28;20186;-77
2021/12/13 02:56:01;;;;;;;79.65;28.15;;;;;;;8.74;100.00;102571.78;5044743;28;20022;-77
2021/12/13 02:58:28;;;;;;;76.72;28.00;;;;;;;8.72;100.00;102564.72;5043669;28;20036;-77
2021/12/13 03:01:00;;;;;;;77.93;27.95;;;;;;;8.70;100.00;102557.75;5042728;28;20286;-77
2021/12/13 03:03:29;;;;;;;74.53;28.55;;;;;;;8.70;100.00;102562.03;5044284;28;20025;-77
2021/12/13 03:05:57;;;;;;;81.40;28.48;;;;;;;8.71;99.92;102566.41;5044658;28;20013;-77
2021/12/13 03:08:43;;;;;;;77.70;27.48;;;;;;;8.71;100.00;102574.22;5043433;28;20025;-77
2021/12/13 03:11:12;;;;;;;68.97;26.75;;;;;;;8.70;99.98;102567.22;5044014;28;20184;-77
2021/12/13 03:13:38;;;;;;;75.95;26.98;;;;;;;8.70;99.82;102567.22;5044070;28;20187;-78
2021/12/13 03:16:16;;;;;;;75.82;26.70;;;;;;;8.69;99.92;102557.66;5044575;28;20029;-77
2021/12/13 03:19:08;;;;;;;74.60;28.38;;;;;;;8.69;99.81;102565.44;5076364;28;20045;-77
2021/12/13 03:22:10;;;;;;;75.85;27.38;;;;;;;8.68;99.84;102556.72;5043315;28;20104;-77
2021/12/13 03:24:36;;;;;;;77.45;26.58;;;;;;;8.67;99.96;102556.66;5040696;28;20025;-77
2021/12/13 03:27:04;;;;;;;72.47;26.17;;;;;;;8.66;99.84;102562.63;5044739;28;20036;-77
2021/12/13 03:29:53;;;;;;;70.75;27.42;;;;;;;8.65;99.74;102571.25;5045068;28;20307;-77
2021/12/13 03:32:21;;;;;;;77.30;27.23;;;;;;;8.65;99.98;102568.66;5040807;28;20084;-78
2021/12/13 03:35:03;;;;;;;81.65;28.13;;;;;;;8.64;99.79;102572.94;5045136;28;20243;-77
2021/12/13 03:37:30;;;;;;;73.72;27.15;;;;;;;8.64;99.62;102572.06;5041990;28;20164;-78
2021/12/13 03:40:00;;;;;;;82.57;28.13;;;;;;;8.61;99.79;102566.69;5075116;28;20080;-78
2021/12/13 03:42:39;;;;;;;81.80;28.83;;;;;;;8.61;99.88;102577.06;5041294;28;20029;-78
2021/12/13 03:45:16;;;;;;;83.53;28.92;;;;;;;8.61;99.82;102577.06;5043485;28;20308;-77
2021/12/13 03:47:44;;;;;;;90.88;30.27;;;;;;;8.59;99.90;102569.19;5043797;28;20133;-77
2021/12/13 03:50:18;;;;;;;81.35;28.02;;;;;;;8.59;99.85;102565.69;5041747;28;20132;-77
2021/12/13 03:52:47;;;;;;;77.07;27.55;;;;;;;8.60;99.83;102576.16;5076349;28;20179;-77
2021/12/13 03:55:16;;;;;;;77.07;28.42;;;;;;;8.60;99.76;102570.09;5042110;28;20117;-77
2021/12/13 03:57:47;;;;;;;74.60;27.15;;;;;;;8.59;99.59;102578.66;5044317;28;20244;-77
2021/12/13 04:00:17;;;;;;;77.05;26.05;;;;;;;8.57;99.43;102578.59;5044013;28;20048;-77
2021/12/13 04:02:43;;;;;;;73.07;25.90;;;;;;;8.58;99.44;102576.91;5071174;28;20060;-77
2021/12/13 04:05:14;;;;;;;77.13;26.33;;;;;;;8.57;99.61;102585.50;5042172;28;20021;-77
2021/12/13 04:07:45;;;;;;;74.50;26.80;;;;;;;8.55;99.58;102575.00;5039380;28;20071;-77
2021/12/13 04:10:16;;;;;;;78.60;26.92;;;;;;;8.55;99.50;102580.22;5042906;28;20045;-77
2021/12/13 04:12:47;;;;;;;75.82;26.05;;;;;;;8.56;99.72;102570.69;5043378;28;20093;-77
2021/12/13 04:15:26;;;;;;;79.25;26.40;;;;;;;8.55;99.49;102572.41;5042571;28;20033;-77
2021/12/13 04:18:12;;;;;;;74.53;25.73;;;;;;;8.54;99.47;102570.59;5042115;28;20070;-77
2021/12/13 04:20:39;;;;;;;80.55;26.88;;;;;;;8.53;99.45;102580.13;5039714;28;20024;-77
2021/12/13 04:23:09;;;;;;;77.18;26.48;;;;;;;8.53;99.54;102590.50;5043475;28;20124;-77
2021/12/13 04:25:39;;;;;;;75.82;25.92;;;;;;;8.52;99.60;102582.63;5043511;28;20264;-77
2021/12/13 04:28:09;;;;;;;71.78;26.10;;;;;;;8.51;99.57;102581.72;5035644;28;20041;-77
2021/12/13 04:30:48;;;;;;;69.65;24.45;;;;;;;8.52;99.67;102582.63;5058833;28;20402;-77
2021/12/13 04:33:36;;;;;;;73.28;25.02;;;;;;;8.52;99.38;102577.44;5042074;28;20365;-77
2021/12/13 04:36:04;;;;;;;71.22;24.63;;;;;;;8.52;99.42;102585.22;5035241;28;20728;-77
2021/12/13 04:38:52;;;;;;;70.93;24.33;;;;;;;8.52;99.45;102585.22;5041752;28;20083;-77
2021/12/13 04:41:27;;;;;;;73.55;24.10;;;;;;;8.50;99.25;102585.13;5043261;28;20275;-77
2021/12/13 04:44:26;;;;;;;70.28;24.38;;;;;;;8.51;99.39;102579.09;5041760;28;20018;-77
2021/12/13 04:46:54;;;;;;;71.20;23.58;;;;;;;8.51;98.94;102586.00;5043070;28;20037;-77
2021/12/13 04:49:23;;;;;;;72.13;24.27;;;;;;;8.50;99.11;102584.22;5041795;28;20049;-77
2021/12/13 04:52:01;;;;;;;68.68;24.00;;;;;;;8.49;99.00;102580.72;5043153;28;20083;-77
2021/12/13 04:54:29;;;;;;;67.97;23.15;;;;;;;8.49;99.23;102582.44;5042587;28;20029;-77
2021/12/13 04:56:56;;;;;;;68.55;23.85;;;;;;;8.48;99.04;102578.03;5042613;28;20030;-77
2021/12/13 04:59:23;;;;;;;65.72;23.25;;;;;;;8.46;99.25;102566.69;5072662;28;20034;-77
2021/12/13 05:01:53;;;;;;;64.38;23.83;;;;;;;8.48;98.61;102575.44;5041455;28;20049;-77
2021/12/13 05:04:21;;;;;;;64.07;22.98;;;;;;;8.46;99.03;102588.34;5074548;28;20029;-77
2021/12/13 05:06:49;;;;;;;66.95;23.20;;;;;;;8.46;98.98;102577.94;5042524;28;20314;-77
2021/12/13 05:09:17;;;;;;;63.17;22.77;;;;;;;8.45;98.85;102589.13;5042108;28;20037;-77
2021/12/13 05:11:49;;;;;;;64.18;22.95;;;;;;;8.45;99.13;102588.25;5042691;28;20199;-77
2021/12/13 05:14:17;;;;;;;66.90;23.05;;;;;;;8.46;99.14;102579.66;5042390;28;20076;-77
2021/12/13 05:16:48;;;;;;;63.63;23.23;;;;;;;8.47;99.06;102584.03;5040456;28;20030;-77
2021/12/13 05:19:26;;;;;;;60.63;22.17;;;;;;;8.46;98.80;102590.94;5042653;28;20029;-77
2021/12/13 05:21:52;;;;;;;61.58;23.08;;;;;;;8.46;98.69;102590.06;5040132;28;20033;-77
2021/12/13 05:24:30;;;;;;;61.47;21.70;;;;;;;8.46;98.76;102590.94;5040891;28;20298;-77
2021/12/13 05:27:00;;;;;;;60.22;22.88;;;;;;;8.46;98.70;102590.06;5039554;28;20028;-77
2021/12/13 05:29:30;;;;;;;63.03;22.90;;;;;;;8.45;98.58;102594.34;5039436;28;20120;-77
2021/12/13 05:32:04;;;;;;;62.17;22.20;;;;;;;8.45;98.83;102588.25;5039610;28;20034;-77
2021/12/13 05:34:49;;;;;;;58.97;21.42;;;;;;;8.45;98.57;102599.53;5069045;28;20033;-77
2021/12/13 05:37:17;;;;;;;59.83;22.20;;;;;;;8.44;98.58;102578.63;5041847;28;20026;-81
2021/12/13 05:39:58;;;;;;;57.70;21.60;;;;;;;8.44;98.69;102586.41;5042197;28;20032;-81
2021/12/13 05:42:35;;;;;;;55.42;21.00;;;;;;;8.44;98.47;102586.41;5040246;28;20026;-81
2021/12/13 05:45:01;;;;;;;56.53;20.35;;;;;;;8.43;98.47;102593.31;5040817;28;20045;-80
2021/12/13 05:47:27;;;;;;;56.53;20.38;;;;;;;8.42;98.52;102588.03;5042381;28;20090;-81
2021/12/13 05:49:53;;;;;;;54.28;19.92;;;;;;;8.42;98.14;102588.03;5040452;28;20260;-81
2021/12/13 05:52:24;;;;;;;55.08;20.55;;;;;;;8.42;98.34;102588.91;5042036;28;20045;-81
2021/12/13 05:54:58;;;;;;;58.33;20.67;;;;;;;8.40;98.40;102585.34;5072600;28;20976;-81
2021/12/13 05:57:31;;;;;;;55.80;20.27;;;;;;;8.40;98.31;102584.44;5041899;28;20057;-81
2021/12/13 06:00:19;;;;;;;54.00;18.55;;;;;;;8.41;98.21;102589.72;5039528;28;20039;-81
2021/12/13 06:03:05;;;;;;;54.45;18.90;;;;;;;8.41;98.41;102594.03;5040600;28;20096;-81
2021/12/13 06:05:37;;;;;;;56.15;19.30;;;;;;;8.39;98.34;102596.53;5036524;28;20053;-81
2021/12/13 06:08:28;;;;;;;49.38;18.92;;;;;;;8.39;98.21;102599.13;5035347;28;20071;-77
2021/12/13 06:10:58;;;;;;;53.15;19.00;;;;;;;8.36;98.15;102586.84;5030214;28;20033;-77
2021/12/13 06:13:43;;;;;;;55.47;19.48;;;;;;;8.38;98.26;102594.72;5041935;28;20073;-77
2021/12/13 06:16:23;;;;;;;51.17;18.30;;;;;;;8.37;98.14;102592.94;5025309;28;20037;-77
2021/12/13 06:18:58;;;;;;;49.78;17.98;;;;;;;8.36;98.24;102596.34;5041297;28;20071;-77
2021/12/13 06:21:48;;;;;;;48.33;18.73;;;;;;;8.36;98.16;102601.56;5041155;28;20084;-77
2021/12/13 06:24:13;;;;;;;49.67;17.98;;;;;;;8.34;97.78;102600.53;5037001;28;20032;-77
2021/12/13 06:26:39;;;;;;;48.20;17.88;;;;;;;8.34;98.26;102597.94;5039557;28;20033;-77
2021/12/13 06:29:07;;;;;;;51.50;19.13;;;;;;;8.35;98.28;102599.75;5038708;28;20060;-77
2021/12/13 06:31:44;;;;;;;48.25;18.02;;;;;;;8.35;97.95;102604.94;5039835;28;20036;-77
2021/12/13 06:34:14;;;;;;;52.53;18.42;;;;;;;8.34;98.24;102608.34;5039423;28;20029;-77
2021/12/13 06:36:44;;;;;;;47.00;18.15;;;;;;;8.36;97.95;102606.75;5037354;28;20188;-77
2021/12/13 06:39:14;;;;;;;49.83;18.05;;;;;;;8.34;97.91;102609.25;5034380;28;20053;-77
2021/12/13 06:41:45;;;;;;;48.20;18.33;;;;;;;8.34;97.94;102617.03;5038033;28;20029;-77
2021/12/13 06:44:29;;;;;;;45.45;17.58;;;;;;;8.35;97.91;102615.31;5033320;28;20098;-77
2021/12/13 06:47:01;;;;;;;42.83;18.13;;;;;;;8.34;97.94;102627.44;5034998;28;20148;-76
2021/12/13 06:49:43;;;;;;;48.50;17.98;;;;;;;8.34;97.79;102611.84;5031634;28;20045;-77
2021/12/13 06:52:11;;;;;;;45.20;17.27;;;;;;;8.33;97.83;102620.44;5038365;28;20040;-77
2021/12/13 06:54:47;;;;;;;42.60;16.55;;;;;;;8.32;97.66;102626.41;5039960;28;20107;-77
2021/12/13 06:57:37;;;;;;;47.55;17.40;;;;;;;8.32;97.82;102620.34;5033351;28;20034;-77
2021/12/13 07:00:19;;;;;;;42.60;16.10;;;;;;;8.32;97.88;102626.41;5036675;28;20033;-76
2021/12/13 07:02:49;;;;;;;47.60;17.58;;;;;;;8.31;97.73;102627.25;5036242;28;20036;-77
2021/12/13 07:05:23;;;;;;;45.67;17.55;;;;;;;8.31;97.89;102628.91;5040295;28;20112;-77
2021/12/13 07:08:03;;;;;;;44.70;15.82;;;;;;;8.32;97.73;102625.53;5040231;28;20029;-77
2021/12/13 07:10:37;;;;;;;39.80;15.88;;;;;;;8.30;97.73;102632.34;5038819;28;20286;-77
2021/12/13 07:13:27;;;;;;;44.92;16.27;;;;;;;8.30;97.88;102630.63;5040593;28;20064;-77
2021/12/13 07:16:00;;;;;;;48.67;17.63;;;;;;;8.30;97.73;102638.44;5040725;28;20093;-77
2021/12/13 07:18:30;;;;;;;44.13;16.58;;;;;;;8.29;97.66;102635.75;5041195;28;20021;-77
2021/12/13 07:21:02;;;;;;;42.25;16.27;;;;;;;8.29;97.74;102635.75;5040696;28;20037;-77
2021/12/13 07:23:48;;;;;;;41.70;16.38;;;;;;;8.28;97.63;102634.81;5033022;28;20227;-77
2021/12/13 07:26:14;;;;;;;43.95;17.60;;;;;;;8.29;97.61;102638.34;5041499;28;20093;-77
2021/12/13 07:28:40;;;;;;;43.08;16.73;;;;;;;8.28;97.48;102640.00;5038875;28;20215;-76
2021/12/13 07:31:08;;;;;;;47.88;17.13;;;;;;;8.27;97.53;102647.72;5041104;28;20314;-77
2021/12/13 07:33:41;;;;;;;44.05;16.77;;;;;;;8.27;97.51;102648.63;5041302;28;20025;-77
2021/12/13 07:36:28;;;;;;;43.58;16.45;;;;;;;8.28;97.56;102649.50;5041634;28;20026;-77
2021/12/13 07:39:02;;;;;;;44.03;17.55;;;;;;;8.28;97.66;102639.13;5043539;28;20044;-67
2021/12/13 07:41:42;;;;;;;48.15;17.73;;;;;;;8.28;97.59;102655.59;5042314;28;20049;-67
2021/12/13 07:44:12;;;;;;;47.65;16.98;;;;;;;8.28;97.50;102649.50;5038539;28;20028;-67
2021/12/13 07:46:38;;;;;;;46.78;17.05;;;;;;;8.27;97.51;102652.91;5042455;28;20075;-67
2021/12/13 07:49:08;;;;;;;44.55;16.92;;;;;;;8.27;97.70;102659.03;5042766;28;20026;-67
2021/12/13 07:51:51;;;;;;;;;;;;;;;8.32;98.05;102656.69;5045064;28;20025;-67
2021/12/13 07:54:19;;;;;;;41.30;15.52;;;;;;;8.29;97.71;102659.13;5033960;28;20125;-67
2021/12/13 07:56:54;;;;;;;44.75;17.48;;;;;;;8.30;97.64;102669.59;5043602;28;20165;-67
2021/12/13 07:59:25;;;;;;;44.08;16.48;;;;;;;8.30;97.58;102673.91;5044515;28;20026;-66
2021/12/13 08:01:50;;;;;;;43.85;16.33;;;;;;;8.29;97.56;102667.78;5044533;28;20408;-67
2021/12/13 08:04:22;;;;;;;48.10;17.43;;;;;;;8.30;97.50;102676.50;5043666;28;20159;-66
2021/12/13 08:06:55;;;;;;;49.20;18.08;;;;;;;8.29;97.57;102672.97;5038232;28;20306;-68
2021/12/13 08:09:26;;;;;;;42.40;17.25;;;;;;;8.30;97.62;102668.72;5044095;28;20089;-69
2021/12/13 08:11:57;;;;;;;45.65;17.52;;;;;;;8.31;97.86;102665.28;5044415;28;20021;-69
2021/12/13 08:14:39;;;;;;;44.83;16.90;;;;;;;8.31;97.84;102661.00;5043628;28;20108;-69
2021/12/13 08:17:18;;;;;;;43.58;16.05;;;;;;;8.32;97.53;102667.09;5042478;28;20034;-69
2021/12/13 08:19:51;;;;;;;46.72;17.63;;;;;;;8.31;97.59;102671.41;5036834;28;20057;-69
2021/12/13 08:22:19;;;;;;;44.70;18.08;;;;;;;8.32;97.46;102673.16;5043043;28;20310;-69
2021/12/13 08:24:48;;;;;;;42.00;17.52;;;;;;;8.32;97.59;102672.28;5037754;28;20093;-68
2021/12/13 08:27:22;;;;;;;44.05;18.25;;;;;;;8.33;97.85;102674.97;5044330;28;20032;-68
2021/12/13 08:29:47;;;;;;;43.30;17.80;;;;;;;8.32;97.63;102662.78;5039112;28;20036;-68
2021/12/13 08:32:17;;;;;;;46.58;17.77;;;;;;;8.32;97.45;102667.09;5042490;28;20021;-69
2021/12/13 08:34:47;;;;;;;49.08;17.83;;;;;;;8.32;97.56;102664.50;5043491;28;20288;-68
2021/12/13 08:37:25;;;;;;;44.13;17.52;;;;;;;8.32;97.37;102664.50;5042128;28;20048;-67
2021/12/13 08:40:11;;;;;;;45.13;18.65;;;;;;;8.33;97.50;102663.69;5039913;28;20025;-67
2021/12/13 08:42:42;;;;;;;47.75;17.83;;;;;;;8.33;97.54;102668.91;5042678;28;20177;-67
2021/12/13 08:45:20;;;;;;;43.70;17.17;;;;;;;8.33;97.54;102674.09;5041126;28;20057;-67
2021/12/13 08:47:50;;;;;;;40.35;17.08;;;;;;;8.33;97.20;102674.09;5043594;28;20021;-67
2021/12/13 08:50:27;;;;;;;40.38;16.77;;;;;;;8.33;97.11;102674.09;5036969;28;20210;-67
2021/12/13 08:52:56;;;;;;;41.95;17.25;;;;;;;8.33;97.05;102668.91;5043929;28;20101;-67
2021/12/13 08:55:25;;;;;;;;;;;;;;;8.36;97.45;102669.09;5043274;28;20358;-67
2021/12/13 08:58:17;;;;;;;38.13;15.82;;;;;;;8.34;97.21;102670.66;5043327;28;19909;-67
2021/12/13 09:01:04;;;;;;;37.88;14.95;;;;;;;8.33;97.08;102674.09;5037702;28;20034;-67
2021/12/13 09:03:44;;;;;;;39.80;15.65;;;;;;;8.34;97.11;102673.25;5042775;28;20026;-67
2021/12/13 09:06:31;;;;;;;39.05;15.90;;;;;;;8.36;96.97;102674.28;5040684;28;20111;-67
2021/12/13 09:09:14;;;;;;;38.25;15.68;;;;;;;8.34;97.23;102676.78;5040931;28;20259;-67
2021/12/13 09:11:56;;;;;;;38.75;15.85;;;;;;;8.34;96.90;102675.84;5034278;28;20087;-67
2021/12/13 09:14:39;;;;;;;37.05;15.20;;;;;;;8.35;97.03;102675.94;5042940;28;20037;-67
2021/12/13 09:17:32;;;;;;;38.10;15.68;;;;;;;8.36;96.58;102682.06;5043073;28;20029;-67
2021/12/13 09:19:59;;;;;;;37.92;15.23;;;;;;;8.36;96.24;102682.06;5041153;28;20096;-67
2021/12/13 09:22:30;;;;;;;37.42;15.15;;;;;;;8.36;96.68;102685.56;5040016;28;20090;-67
2021/12/13 09:25:00;;;;;;;33.47;14.27;;;;;;;8.36;96.46;102690.75;5062442;28;20259;-67
2021/12/13 09:27:48;;;;;;;36.20;15.18;;;;;;;8.38;96.54;102689.94;5043178;28;20024;-67
2021/12/13 09:30:23;;;;;;;38.63;15.70;;;;;;;8.38;96.50;102697.75;5042826;28;20025;-67
2021/12/13 09:32:59;;;;;;;33.17;14.57;;;;;;;8.39;96.36;102707.34;5043253;28;20045;-67
2021/12/13 09:35:36;;;;;;;32.83;14.40;;;;;;;8.38;96.83;102706.44;5036520;28;20044;-67
2021/12/13 09:38:45;;;;;;;32.00;14.40;;;;;;;8.39;96.52;102710.81;5034402;28;20184;-67
2021/12/13 09:41:21;;;;;;;32.88;13.88;;;;;;;8.39;96.32;102710.81;5035475;28;20192;-67
2021/12/13 09:43:52;;;;;;;34.25;14.35;;;;;;;8.38;96.44;102719.41;5042408;28;20282;-67
2021/12/13 09:46:49;;;;;;;34.55;14.30;;;;;;;8.40;96.27;102727.28;5042373;28;20017;-67
2021/12/13 09:49:23;;;;;;;32.65;13.50;;;;;;;8.40;96.27;102735.09;5036741;28;20033;-67
2021/12/13 09:52:02;;;;;;;31.25;13.50;;;;;;;8.41;96.20;102744.69;5043103;28;20263;-67
2021/12/13 09:54:37;;;;;;;36.13;14.50;;;;;;;8.41;96.13;102747.28;5040782;28;20051;-67
2021/12/13 09:57:09;;;;;;;33.67;13.75;;;;;;;8.41;95.94;102745.56;5036934;28;20033;-67
2021/12/13 09:59:41;;;;;;;31.50;14.25;;;;;;;8.43;96.19;102756.06;5040224;28;20027;-67
2021/12/13 10:02:22;;;;;;;33.17;14.30;;;;;;;8.43;96.27;102751.78;5034171;28;20060;-66
2021/12/13 10:04:50;;;;;;;32.40;13.38;;;;;;;8.42;96.02;102755.16;5039587;28;20183;-67
2021/12/13 10:07:23;;;;;;;32.13;13.88;;;;;;;8.45;96.06;102760.59;5042055;28;20029;-67
2021/12/13 10:09:57;;;;;;;31.35;13.38;;;;;;;8.45;95.89;102751.91;5042360;28;20053;-67
2021/12/13 10:12:34;;;;;;;31.73;12.18;;;;;;;8.44;95.67;102745.81;5041935;28;20359;-67
2021/12/13 10:15:09;;;;;;;28.30;12.68;;;;;;;8.46;95.75;102748.53;5041711;28;20037;-67
2021/12/13 10:17:43;;;;;;;27.27;11.90;;;;;;;8.45;95.90;102742.41;5041628;28;20045;-67
2021/12/13 10:20:31;;;;;;;25.70;11.50;;;;;;;8.47;96.04;102734.72;5042008;28;20044;-67
2021/12/13 10:22:57;;;;;;;28.58;11.90;;;;;;;8.46;95.58;102739.03;5025637;28;20029;-67
2021/12/13 10:25:31;;;;;;;26.00;11.85;;;;;;;8.46;95.69;102740.72;5033808;28;20029;-67
2021/12/13 10:27:57;;;;;;;23.95;10.75;;;;;;;8.46;95.45;102738.13;5033982;28;20072;-67
2021/12/13 10:30:31;;;;;;;26.85;10.80;;;;;;;8.48;95.39;102744.31;5041790;28;20287;-67
2021/12/13 10:32:58;;;;;;;25.95;10.90;;;;;;;8.47;95.52;102739.91;5042221;28;20021;-67
2021/12/13 10:35:28;;;;;;;22.13;10.80;;;;;;;8.48;95.72;102739.13;5041316;28;20041;-67
2021/12/13 10:37:58;;;;;;;25.20;10.75;;;;;;;8.46;95.40;102731.22;5029304;28;20052;-67
2021/12/13 10:40:37;;;;;;;23.73;10.85;;;;;;;8.48;95.30;102732.22;5041694;28;20279;-67
2021/12/13 10:43:07;;;;;;;27.02;10.85;;;;;;;8.48;95.09;102726.13;5041800;28;20027;-67
2021/12/13 10:45:39;;;;;;;22.02;10.00;;;;;;;8.49;95.03;102727.94;5040605;28;20058;-67
2021/12/13 10:48:07;;;;;;;24.50;10.23;;;;;;;8.48;95.21;102731.31;5031516;28;20067;-67
2021/12/13 10:50:44;;;;;;;23.40;9.82;;;;;;;8.48;95.22;102732.22;5041841;28;20056;-67
2021/12/13 10:53:12;;;;;;;24.80;11.13;;;;;;;8.49;94.82;102730.53;5035372;28;20078;-67
2021/12/13 10:55:46;;;;;;;22.05;10.50;;;;;;;8.49;94.95;102726.22;5041680;28;20034;-67
2021/12/13 10:58:18;;;;;;;25.77;10.52;;;;;;;8.50;95.14;102727.09;5034283;28;20053;-67
2021/12/13 11:00:54;;;;;;;23.60;10.68;;;;;;;8.51;94.94;102729.78;5031827;28;20063;-67
2021/12/13 11:03:27;;;;;;;23.25;10.50;;;;;;;8.51;94.95;102734.09;5040350;28;20079;-67
2021/12/13 11:05:54;;;;;;;22.05;10.18;;;;;;;8.51;94.56;102732.38;5042215;28;21265;-67
2021/12/13 11:08:23;;;;;;;22.55;10.60;;;;;;;8.52;94.53;102718.59;5045807;28;20021;-67
2021/12/13 11:10:56;;;;;;;25.40;10.27;;;;;;;8.53;94.81;102719.53;5045204;28;20052;-66
2021/12/13 11:13:26;;;;;;;23.50;11.00;;;;;;;8.55;94.50;102714.44;5044360;28;20041;-67
2021/12/13 11:15:55;;;;;;;24.83;11.38;;;;;;;8.52;94.28;102703.03;5036364;28;20021;-67
2021/12/13 11:18:27;;;;;;;;;;;;;;;8.57;95.19;102713.69;5044284;28;20033;-67
2021/12/13 11:20:56;;;;;;;24.25;10.18;;;;;;;8.55;94.20;102714.44;5039259;28;20209;-67
2021/12/13 11:23:22;;;;;;;24.63;10.95;;;;;;;8.55;94.04;102711.81;5044745;28;20037;-67
2021/12/13 11:25:55;;;;;;;24.45;10.73;;;;;;;8.55;94.13;102709.22;5045318;28;20207;-67
2021/12/13 11:28:22;;;;;;;22.10;10.75;;;;;;;8.55;94.27;102712.72;5046005;28;20052;-67
2021/12/13 11:30:49;;;;;;;22.38;10.80;;;;;;;8.55;94.27;102717.91;5043906;28;20024;-67
2021/12/13 11:33:22;;;;;;;20.85;10.23;;;;;;;8.55;94.07;102711.81;5044509;28;20067;-66
2021/12/13 11:36:25;;;;;;;22.67;10.43;;;;;;;8.57;94.08;102716.28;5045214;28;20029;-66
2021/12/13 11:39:27;;;;;;;22.50;10.73;;;;;;;8.57;93.89;102716.28;5044376;28;20091;-67
2021/12/13 11:41:53;;;;;;;22.48;10.18;;;;;;;8.59;94.15;102711.19;5044473;28;20032;-66
2021/12/13 11:44:53;;;;;;;28.05;11.20;;;;;;;8.59;93.95;102718.97;5039191;28;20230;-67
2021/12/13 11:47:28;;;;;;;25.00;11.00;;;;;;;8.59;93.88;102711.19;5034644;28;20085;-66
2021/12/13 11:50:42;;;;;;;22.90;10.68;;;;;;;8.60;93.96;102706.09;5043279;28;20057;-66
2021/12/13 11:53:27;;;;;;;20.95;10.40;;;;;;;8.62;93.85;102714.00;4991055;28;20345;-66
2021/12/13 11:56:06;;;;;;;20.48;9.82;;;;;;;8.61;93.20;102707.88;5044676;28;20045;-66